Time;durP1;ratioP1;P1;durP2;ratioP2;P2;SDS_P1;SDS_P2;PMS_P1;PMS_P2;Temp;Humidity;BMP_temperature;BMP_pressure;BME280_temperature;BME280_humidity;BME280_pressure;Samples;Min_cycle;Max_cycle;Signal;HPM_P1;HPM_P2
2021/12/25 00:01:14;;;;;;;18.38;13.32;;;;;;;5.25;98.62;100456.75;5033113;28;20112;-63
2021/12/25 00:03:40;;;;;;;19.50;13.07;;;;;;;5.27;98.77;100455.81;5031032;28;20067;-62
2021/12/25 00:06:06;;;;;;;23.13;15.98;;;;;;;5.21;98.12;100452.75;5032352;28;20443;-62
2021/12/25 00:08:32;;;;;;;18.35;13.20;;;;;;;5.25;98.02;100448.88;5031776;28;20057;-63
2021/12/25 00:10:59;;;;;;;18.85;13.15;;;;;;;5.24;98.46;100446.41;5030978;28;20112;-62
2021/12/25 00:13:24;;;;;;;19.40;13.13;;;;;;;5.25;98.17;100454.13;5032204;28;20044;-62
2021/12/25 00:15:51;;;;;;;19.40;13.57;;;;;;;5.23;98.07;100456.06;5031444;28;20018;-62
2021/12/25 00:18:17;;;;;;;19.50;13.10;;;;;;;5.20;98.19;100458.97;5032779;28;20061;-62
2021/12/25 00:20:43;;;;;;;19.58;13.57;;;;;;;5.20;97.84;100456.34;5031389;28;20036;-62
2021/12/25 00:23:10;;;;;;;21.42;13.35;;;;;;;5.17;97.24;100456.59;5031257;28;20029;-63
2021/12/25 00:25:40;;;;;;;19.15;12.65;;;;;;;5.13;97.37;100449.94;5032622;28;20395;-63
2021/12/25 00:33:50;;;;;;;18.77;12.52;;;;;;;5.08;97.26;100436.41;5031769;28;20038;-63
2021/12/25 00:36:19;;;;;;;19.10;12.40;;;;;;;5.08;97.69;100439.03;5032197;28;20384;-63
2021/12/25 00:38:46;;;;;;;17.23;11.68;;;;;;;5.04;97.45;100445.53;5032168;28;20549;-63
2021/12/25 00:41:14;;;;;;;18.10;11.93;;;;;;;5.02;97.57;100448.28;5029860;28;20041;-63
2021/12/25 00:43:40;;;;;;;17.83;11.68;;;;;;;5.06;96.73;100444.44;5032216;28;20037;-63
2021/12/25 00:46:05;;;;;;;17.02;11.77;;;;;;;5.03;97.37;100443.88;5030837;28;20104;-63
2021/12/25 00:48:31;;;;;;;18.30;12.13;;;;;;;5.09;97.15;100454.66;5031951;28;20047;-63
2021/12/25 00:50:57;;;;;;;19.33;11.95;;;;;;;5.08;97.66;100446.94;5029073;28;20029;-62
2021/12/25 00:53:22;;;;;;;19.77;12.55;;;;;;;5.08;97.28;100452.19;5029828;28;20124;-63
2021/12/25 00:55:48;;;;;;;17.55;11.88;;;;;;;5.05;96.88;100448.03;5030216;28;20040;-62
2021/12/25 00:58:13;;;;;;;18.55;12.20;;;;;;;5.04;97.06;100456.03;5031147;28;20119;-62
2021/12/25 01:00:39;;;;;;;18.98;12.55;;;;;;;5.06;97.59;100448.84;5029994;28;20509;-62
2021/12/25 01:03:04;;;;;;;17.85;11.93;;;;;;;5.06;97.18;100454.09;5029718;28;20045;-62
2021/12/25 01:05:30;;;;;;;19.45;12.13;;;;;;;5.07;97.10;100458.38;5031115;28;20037;-62
2021/12/25 01:07:55;;;;;;;19.10;12.85;;;;;;;5.07;97.36;100450.50;5028337;28;20423;-62
2021/12/25 01:10:21;;;;;;;18.90;12.88;;;;;;;5.00;96.94;100447.59;5031587;28;20138;-63
2021/12/25 01:15:42;;;;;;;17.55;12.10;;;;;;;4.98;97.47;100447.72;5029909;28;20494;-62
2021/12/25 01:18:38;;;;;;;20.35;13.73;;;;;;;4.98;97.44;100446.88;5027905;28;20037;-63
2021/12/25 01:26:17;;;;;;;19.33;13.38;;;;;;;4.97;96.80;100445.22;5024408;28;20083;-63
2021/12/25 01:31:40;;;;;;;20.10;13.70;;;;;;;4.91;97.16;100438.72;5028832;28;20036;-62
2021/12/25 01:37:00;;;;;;;20.60;14.30;;;;;;;4.91;97.10;100443.13;5030685;28;20041;-62
2021/12/25 01:47:43;;;;;;;24.85;15.85;;;;;;;4.88;97.38;100441.59;5029294;28;20037;-62
2021/12/25 01:47:47;;;;;;;23.02;16.13;;;;;;;4.86;97.53;100438.28;5028650;28;20517;-63
2021/12/25 01:50:14;;;;;;;25.05;16.25;;;;;;;4.84;96.93;100437.59;5030531;28;20075;-62
2021/12/25 01:52:40;;;;;;;24.77;17.15;;;;;;;4.87;97.59;100439.94;5029238;28;20028;-63
2021/12/25 01:55:09;;;;;;;25.13;17.13;;;;;;;4.84;96.69;100443.66;5029075;28;20033;-62
2021/12/25 01:57:34;;;;;;;25.60;17.88;;;;;;;4.85;97.22;100431.38;5019756;28;20037;-62
2021/12/25 02:00:03;;;;;;;26.13;17.83;;;;;;;4.82;97.20;100436.88;5029856;28;20033;-62
2021/12/25 02:02:29;;;;;;;26.77;18.73;;;;;;;4.80;97.65;100439.63;5027717;28;20036;-62
2021/12/25 02:04:54;;;;;;;26.48;18.38;;;;;;;4.76;97.35;100432.16;5023834;28;20025;-62
2021/12/25 02:07:20;;;;;;;26.05;18.75;;;;;;;4.74;97.15;100439.34;5029813;28;20022;-62
2021/12/25 02:09:46;;;;;;;27.30;19.52;;;;;;;4.71;96.51;100441.28;5030325;28;20045;-63
2021/12/25 02:12:11;;;;;;;27.83;19.83;;;;;;;4.79;95.98;100442.41;5029423;28;20025;-62
2021/12/25 02:14:38;;;;;;;29.65;20.90;;;;;;;4.69;96.71;100437.94;5030573;28;20064;-63
2021/12/25 02:17:26;;;;;;;29.73;21.33;;;;;;;4.67;96.66;100439.88;5029922;28;20036;-62
2021/12/25 02:20:17;;;;;;;30.02;21.08;;;;;;;4.69;97.04;100432.69;5027341;28;20029;-62
2021/12/25 02:22:43;;;;;;;32.67;21.88;;;;;;;4.61;96.88;100435.16;5023391;28;20027;-62
2021/12/25 02:25:08;;;;;;;31.50;22.52;;;;;;;4.59;96.32;100429.19;5030293;28;20033;-63
2021/12/25 02:27:33;;;;;;;32.58;23.25;;;;;;;4.60;97.07;100428.25;5029624;28;20482;-62
2021/12/25 02:29:59;;;;;;;30.98;21.88;;;;;;;4.61;97.07;100427.28;5030195;28;20036;-63
2021/12/25 02:32:24;;;;;;;32.70;22.38;;;;;;;4.60;96.61;100433.50;5030085;28;20434;-62
2021/12/25 02:34:50;;;;;;;32.90;22.77;;;;;;;4.63;96.63;100435.84;5030459;28;20037;-62
2021/12/25 02:37:15;;;;;;;32.97;22.67;;;;;;;4.61;97.05;100427.28;5030701;28;20030;-62
2021/12/25 02:39:41;;;;;;;30.38;21.92;;;;;;;4.61;96.40;100429.06;5027257;28;20033;-62
2021/12/25 02:42:07;;;;;;;30.33;21.48;;;;;;;4.57;96.95;100439.84;5030471;28;20449;-63
2021/12/25 02:44:32;;;;;;;28.52;20.13;;;;;;;4.52;96.37;100433.31;5029690;28;20700;-63
2021/12/25 02:47:05;;;;;;;28.20;19.73;;;;;;;4.55;97.27;100443.56;5029752;28;20437;-62
2021/12/25 02:49:30;;;;;;;29.23;20.10;;;;;;;4.51;97.05;100440.38;5029553;28;20513;-62
2021/12/25 02:51:55;;;;;;;28.02;19.33;;;;;;;4.50;96.86;100437.88;5028541;28;20026;-62
2021/12/25 02:54:21;;;;;;;26.02;18.00;;;;;;;4.51;96.86;100442.16;5029023;28;20033;-62
2021/12/25 02:56:46;;;;;;;25.13;17.65;;;;;;;4.44;96.99;100445.31;5027934;28;20033;-62
2021/12/25 02:59:12;;;;;;;23.83;16.90;;;;;;;4.44;96.28;100440.06;5027702;28;20048;-62
2021/12/25 03:01:38;;;;;;;23.63;16.67;;;;;;;4.37;96.02;100448.59;5027650;28;20072;-63
2021/12/25 03:04:05;;;;;;;25.10;16.85;;;;;;;4.34;96.84;100440.97;5026874;28;20466;-62
2021/12/25 03:06:34;;;;;;;24.63;16.00;;;;;;;4.25;95.98;100439.97;5028568;28;20091;-62
2021/12/25 03:08:59;;;;;;;24.30;16.40;;;;;;;4.24;96.77;100449.63;5028024;28;20045;-62
2021/12/25 03:11:24;;;;;;;22.40;15.20;;;;;;;4.16;96.23;100452.88;5029559;28;20478;-62
2021/12/25 03:13:58;;;;;;;23.10;14.00;;;;;;;4.08;95.42;100457.97;5027792;28;20045;-62
2021/12/25 03:16:23;;;;;;;;;;;;;;;4.28;94.62;100455.44;5027407;28;20715;-62
2021/12/25 03:18:52;;;;;;;22.45;14.43;;;;;;;4.00;95.20;100463.03;5028830;28;19921;-62
2021/12/25 03:21:18;;;;;;;24.23;15.55;;;;;;;3.91;95.71;100462.00;5029865;28;20030;-62
2021/12/25 03:23:44;;;;;;;23.33;14.80;;;;;;;3.92;95.75;100470.69;5028483;28;20522;-63
2021/12/25 03:26:10;;;;;;;24.52;15.95;;;;;;;3.90;95.95;100473.47;5030218;28;20526;-62
2021/12/25 03:28:39;;;;;;;27.45;16.42;;;;;;;3.85;94.98;100478.25;5021790;28;20029;-62
2021/12/25 03:31:14;;;;;;;23.75;14.52;;;;;;;3.79;94.59;100471.69;5027360;28;20486;-62
2021/12/25 03:33:39;;;;;;;25.30;16.05;;;;;;;3.76;95.04;100482.47;5028412;28;20025;-62
2021/12/25 03:36:05;;;;;;;27.48;16.70;;;;;;;3.70;95.47;100482.97;5030925;28;20112;-61
2021/12/25 03:38:30;;;;;;;25.65;15.63;;;;;;;3.71;94.75;100489.88;5029591;28;20033;-62
2021/12/25 03:40:56;;;;;;;24.05;15.35;;;;;;;3.63;94.78;100483.47;5031590;28;20029;-61
2021/12/25 03:43:22;;;;;;;24.80;15.13;;;;;;;3.60;95.11;100488.94;5032334;28;20117;-62
2021/12/25 03:45:48;;;;;;;24.20;15.95;;;;;;;3.51;95.11;100481.84;5031265;28;20044;-62
2021/12/25 03:59:04;;;;;;;23.50;14.60;;;;;;;3.34;94.91;100486.66;5030478;28;20067;-61
2021/12/25 04:01:43;;;;;;;22.63;15.32;;;;;;;3.36;94.97;100497.81;5030725;28;20570;-61
2021/12/25 04:04:17;;;;;;;20.90;14.15;;;;;;;3.26;93.87;100489.03;5029285;28;20029;-62
2021/12/25 04:09:34;;;;;;;22.63;15.15;;;;;;;3.28;94.80;100494.16;5031477;28;20063;-61
2021/12/25 04:12:06;;;;;;;22.35;15.40;;;;;;;3.25;94.89;100500.47;5032746;28;20021;-62
2021/12/25 04:14:31;;;;;;;21.98;14.90;;;;;;;3.26;94.58;100496.88;5031112;28;20033;-61
2021/12/25 04:16:57;;;;;;;23.38;15.75;;;;;;;3.23;94.43;100502.38;5031097;28;20218;-61
2021/12/25 04:19:22;;;;;;;23.17;15.77;;;;;;;3.24;94.21;100506.66;5031671;28;20333;-61
2021/12/25 04:21:54;;;;;;;24.08;16.42;;;;;;;3.18;94.60;100509.78;5032066;28;20033;-61
2021/12/25 04:24:20;;;;;;;24.13;16.23;;;;;;;3.19;93.88;100508.81;5032247;28;20495;-61
2021/12/25 04:26:48;;;;;;;24.48;16.70;;;;;;;3.15;94.14;100507.41;5032154;28;20025;-61
2021/12/25 04:29:51;;;;;;;22.60;15.75;;;;;;;3.13;93.17;100518.00;5031820;28;20080;-61
2021/12/25 05:02:16;;;;;;;24.77;17.63;;;;;;;2.39;91.87;100553.28;5025662;28;20040;-61
2021/12/25 05:04:47;;;;;;;25.33;18.58;;;;;;;2.31;92.63;100559.09;5025275;28;20124;-61
2021/12/25 05:07:13;;;;;;;25.20;17.30;;;;;;;2.27;91.85;100550.66;5028462;28;20038;-60
2021/12/25 05:09:39;;;;;;;26.17;17.93;;;;;;;2.29;91.32;100564.44;5029669;28;20053;-61
2021/12/25 05:12:05;;;;;;;24.47;17.67;;;;;;;2.19;91.60;100560.84;5030065;28;20029;-61
2021/12/25 05:14:30;;;;;;;24.73;18.23;;;;;;;2.09;91.57;100570.31;5030635;28;20037;-61
2021/12/25 05:16:55;;;;;;;25.70;19.10;;;;;;;2.04;92.38;100561.97;5029460;28;20466;-61
2021/12/25 05:19:21;;;;;;;25.83;18.40;;;;;;;2.05;92.21;100571.47;5030716;28;20033;-61
2021/12/25 05:21:46;;;;;;;25.57;18.70;;;;;;;2.01;91.83;100573.50;5030246;28;20108;-61
2021/12/25 05:24:11;;;;;;;25.07;18.10;;;;;;;1.97;92.38;100567.66;5031457;28;20241;-61
2021/12/25 05:26:37;;;;;;;25.40;18.73;;;;;;;1.97;92.11;100570.28;5029617;28;20030;-62
2021/12/25 05:29:04;;;;;;;26.80;19.03;;;;;;;1.96;92.46;100575.59;5030793;28;20025;-61
2021/12/25 05:31:35;;;;;;;24.83;17.20;;;;;;;1.85;91.23;100568.56;5028661;28;20080;-61
2021/12/25 05:34:01;;;;;;;25.83;18.07;;;;;;;1.84;91.46;100578.19;5030272;28;20033;-61
2021/12/25 05:36:28;;;;;;;27.07;19.00;;;;;;;1.76;91.99;100582.31;5030168;28;20048;-61
2021/12/25 05:38:57;;;;;;;26.50;18.13;;;;;;;1.62;91.90;100584.09;5028929;28;20124;-61
2021/12/25 05:41:27;;;;;;;24.20;16.90;;;;;;;1.57;92.44;100591.44;5023984;28;20025;-61
2021/12/25 05:43:54;;;;;;;25.90;18.53;;;;;;;1.59;91.15;100590.38;5025594;28;20029;-61
2021/12/25 05:46:19;;;;;;;24.97;17.43;;;;;;;1.54;92.95;100589.06;5029312;28;20029;-61
2021/12/25 05:48:45;;;;;;;25.63;17.57;;;;;;;1.56;92.25;100600.22;5030155;28;20123;-61
2021/12/25 05:51:12;;;;;;;24.63;17.63;;;;;;;1.45;92.55;100593.16;5029662;28;20060;-61
2021/12/25 05:53:38;;;;;;;25.73;17.93;;;;;;;1.42;92.41;100594.19;5028067;28;20064;-61
2021/12/25 05:56:04;;;;;;;25.90;18.37;;;;;;;1.40;92.96;100590.88;5028906;28;20061;-61
2021/12/25 05:58:29;;;;;;;25.43;17.63;;;;;;;1.40;92.58;100601.31;5029323;28;20025;-61
2021/12/25 06:00:54;;;;;;;27.13;19.00;;;;;;;1.40;93.51;100596.09;5027636;28;20033;-61
2021/12/25 06:03:19;;;;;;;27.27;18.53;;;;;;;1.40;93.38;100606.53;5028911;28;20055;-61
2021/12/25 06:05:45;;;;;;;25.13;17.97;;;;;;;1.36;92.14;100610.31;5029029;28;20411;-61
2021/12/25 06:08:10;;;;;;;25.47;17.90;;;;;;;1.37;93.37;100611.16;5030412;28;20037;-61
2021/12/25 06:10:35;;;;;;;27.30;18.80;;;;;;;1.45;92.79;100614.06;5028368;28;20037;-62
2021/12/25 06:13:01;;;;;;;27.03;18.63;;;;;;;1.39;92.76;100620.56;5030382;28;20037;-61
2021/12/25 06:15:28;;;;;;;25.90;17.13;;;;;;;1.37;91.95;100619.81;5027204;28;20038;-61
2021/12/25 06:17:56;;;;;;;26.17;17.70;;;;;;;1.34;92.59;100617.44;5027699;28;20049;-61
2021/12/25 06:20:21;;;;;;;23.27;16.07;;;;;;;1.32;91.67;100614.91;5029122;28;20063;-61
2021/12/25 06:22:46;;;;;;;23.97;17.13;;;;;;;1.23;91.96;100615.53;5029128;28;20115;-61
2021/12/25 06:25:13;;;;;;;25.50;17.17;;;;;;;1.18;92.31;100615.88;5030781;28;20133;-61
2021/12/25 06:27:39;;;;;;;24.70;16.37;;;;;;;1.19;92.81;100625.38;5030045;28;20029;-61
2021/12/25 06:30:06;;;;;;;24.53;16.67;;;;;;;1.18;92.57;100639.38;5029943;28;20036;-61
2021/12/25 06:32:31;;;;;;;23.47;15.83;;;;;;;1.14;92.85;100637.91;5030276;28;20029;-61
2021/12/25 06:34:57;;;;;;;23.50;15.80;;;;;;;1.15;92.56;100638.75;5028758;28;20453;-61
2021/12/25 06:37:24;;;;;;;23.03;16.03;;;;;;;1.05;91.98;100635.94;5029295;28;20445;-61
2021/12/25 06:39:49;;;;;;;22.70;15.70;;;;;;;1.03;92.79;100630.00;5030495;28;20030;-62
2021/12/25 06:42:15;;;;;;;23.37;15.83;;;;;;;1.04;92.77;100636.88;5029552;28;20109;-61
2021/12/25 06:44:40;;;;;;;22.53;15.53;;;;;;;1.04;92.53;100635.09;5029813;28;20502;-62
2021/12/25 06:47:05;;;;;;;22.00;15.00;;;;;;;1.00;92.92;100636.25;5030264;28;20116;-61
2021/12/25 06:49:31;;;;;;;25.30;15.57;;;;;;;0.99;92.82;100637.16;5030869;28;20029;-59
2021/12/25 06:51:56;;;;;;;23.50;15.53;;;;;;;0.98;92.27;100637.28;5031499;28;20418;-60
2021/12/25 06:54:21;;;;;;;22.47;15.20;;;;;;;0.97;92.19;100635.59;5022961;28;20650;-60
2021/12/25 06:56:48;;;;;;;22.47;15.27;;;;;;;0.88;93.20;100643.13;5027547;28;20037;-60
2021/12/25 06:59:15;;;;;;;22.83;15.37;;;;;;;0.87;93.41;100641.47;5026205;28;20087;-60
2021/12/25 07:01:40;;;;;;;22.03;15.10;;;;;;;0.91;93.60;100648.16;5026728;28;20371;-60
2021/12/25 07:04:07;;;;;;;22.43;15.10;;;;;;;0.87;93.40;100646.69;5027628;28;20065;-60
2021/12/25 07:06:33;;;;;;;23.10;15.33;;;;;;;0.85;93.60;100652.94;5025378;28;20033;-61
2021/12/25 07:08:58;;;;;;;24.07;15.47;;;;;;;0.86;93.88;100660.69;5027694;28;20131;-60
2021/12/25 07:11:24;;;;;;;22.23;15.47;;;;;;;0.86;93.56;100660.69;5032610;28;20172;-60
2021/12/25 07:13:51;;;;;;;22.50;15.37;;;;;;;0.87;93.76;100662.34;5033169;28;20026;-61
2021/12/25 07:16:16;;;;;;;23.87;16.30;;;;;;;0.84;93.91;100652.09;5032133;28;20037;-59
2021/12/25 07:18:41;;;;;;;23.77;15.57;;;;;;;0.90;94.05;100659.50;5033918;28;20045;-61
2021/12/25 07:21:07;;;;;;;23.17;15.80;;;;;;;0.92;93.47;100665.50;5032282;28;20027;-61
2021/12/25 07:23:33;;;;;;;22.90;16.00;;;;;;;0.89;93.65;100670.09;5032483;28;20383;-60
2021/12/25 07:25:59;;;;;;;24.07;16.03;;;;;;;0.91;93.68;100679.50;5029378;28;20036;-59
2021/12/25 07:28:25;;;;;;;23.10;15.27;;;;;;;0.90;93.01;100677.78;5032341;28;20026;-60
2021/12/25 07:30:55;;;;;;;21.53;14.27;;;;;;;0.86;92.24;100680.72;5032957;28;20041;-59
2021/12/25 07:33:20;;;;;;;22.33;14.23;;;;;;;0.80;92.94;100681.97;5033019;28;20116;-59
2021/12/25 07:35:45;;;;;;;21.30;13.83;;;;;;;0.79;92.83;100685.53;5029639;28;20449;-60
2021/12/25 07:38:11;;;;;;;22.07;14.50;;;;;;;0.78;92.46;100678.59;5029714;28;20518;-60
2021/12/25 07:40:36;;;;;;;21.23;13.37;;;;;;;0.70;92.91;100691.34;5028593;28;20104;-60
2021/12/25 07:43:02;;;;;;;21.47;14.20;;;;;;;0.69;93.75;100687.06;5032846;28;20449;-60
2021/12/25 07:45:27;;;;;;;21.27;13.77;;;;;;;0.73;93.76;100694.59;5031129;28;20029;-60
2021/12/25 07:47:59;;;;;;;21.33;13.67;;;;;;;0.75;93.03;100694.50;5028875;28;20037;-60
2021/12/25 07:50:26;;;;;;;22.60;13.57;;;;;;;0.75;92.84;100692.69;5030466;28;20025;-60
2021/12/25 07:52:52;;;;;;;22.00;13.13;;;;;;;0.72;92.59;100692.06;5022860;28;20459;-60
2021/12/25 07:55:17;;;;;;;20.27;13.07;;;;;;;0.71;92.57;100696.47;5026324;28;20037;-60
2021/12/25 07:57:42;;;;;;;18.53;11.43;;;;;;;0.67;91.97;100689.75;5027353;28;20121;-59
2021/12/25 08:00:10;;;;;;;17.03;10.27;;;;;;;0.70;90.71;100676.53;5026625;28;20026;-60
2021/12/25 08:02:36;;;;;;;17.00;11.10;;;;;;;0.59;91.45;100700.69;5027130;28;20030;-59
2021/12/25 08:05:02;;;;;;;19.57;10.90;;;;;;;0.59;91.87;100703.31;5026764;28;20087;-60
2021/12/25 08:07:28;;;;;;;18.53;11.07;;;;;;;0.55;91.41;100701.00;5023958;28;20029;-60
2021/12/25 08:09:57;;;;;;;17.97;10.83;;;;;;;0.59;91.86;100711.13;5026924;28;20052;-59
2021/12/25 08:12:23;;;;;;;16.53;10.57;;;;;;;0.55;90.95;100717.50;5023016;28;20140;-60
2021/12/25 08:14:48;;;;;;;17.50;10.67;;;;;;;0.55;91.45;100720.13;5032825;28;20124;-60
2021/12/25 08:17:13;;;;;;;18.33;10.80;;;;;;;0.58;91.23;100724.31;5024365;28;20029;-60
2021/12/25 08:19:38;;;;;;;15.00;9.10;;;;;;;0.62;89.76;100728.38;5022817;28;20032;-60
2021/12/25 08:22:04;;;;;;;15.43;9.93;;;;;;;0.50;90.05;100719.56;5024925;28;20463;-60
2021/12/25 08:24:29;;;;;;;16.30;10.10;;;;;;;0.47;90.36;100730.19;5025276;28;20029;-60
2021/12/25 08:26:54;;;;;;;14.27;9.43;;;;;;;0.49;89.58;100730.97;5028562;28;20442;-60
2021/12/25 08:29:19;;;;;;;14.73;9.80;;;;;;;0.37;89.94;100732.56;5027761;28;20071;-61
2021/12/25 08:31:45;;;;;;;14.97;10.10;;;;;;;0.50;89.04;100735.22;5032646;28;20032;-60
2021/12/25 08:34:11;;;;;;;17.47;10.80;;;;;;;0.41;89.79;100736.66;5027755;28;20033;-60
2021/12/25 08:36:37;;;;;;;15.03;10.07;;;;;;;0.39;90.42;100746.34;5025435;28;20026;-60
2021/12/25 08:39:04;;;;;;;19.13;10.93;;;;;;;0.40;90.67;100738.41;5025087;28;20548;-60
2021/12/25 08:41:31;;;;;;;16.47;10.77;;;;;;;0.39;90.65;100744.56;5020610;28;20538;-61
2021/12/25 08:44:00;;;;;;;17.50;10.87;;;;;;;0.44;90.69;100749.50;5022742;28;20070;-59
2021/12/25 08:49:24;;;;;;;15.93;10.23;;;;;;;0.36;89.02;100763.06;5020161;28;20044;-59
2021/12/25 08:51:51;;;;;;;15.63;9.20;;;;;;;0.37;88.57;100764.72;5024987;28;20437;-59
2021/12/25 08:54:17;;;;;;;15.87;10.20;;;;;;;0.28;89.19;100759.25;5029546;28;20053;-58
2021/12/25 08:56:42;;;;;;;15.00;9.70;;;;;;;0.25;89.23;100763.69;5028907;28;20430;-58
2021/12/25 08:59:07;;;;;;;15.67;9.70;;;;;;;0.31;88.92;100764.25;5020692;28;20514;-59
2021/12/25 09:01:33;;;;;;;14.30;9.67;;;;;;;0.23;88.60;100772.56;5028018;28;20025;-57
2021/12/25 09:03:59;;;;;;;14.87;10.00;;;;;;;0.25;90.06;100770.72;5027805;28;20080;-59
2021/12/25 09:06:25;;;;;;;15.50;9.00;;;;;;;0.23;88.81;100772.56;5029399;28;20462;-59
2021/12/25 09:08:51;;;;;;;13.00;9.10;;;;;;;0.21;88.33;100774.44;5028018;28;20045;-59
2021/12/25 09:11:17;;;;;;;16.47;9.90;;;;;;;0.19;88.05;100765.88;5030093;28;20091;-59
2021/12/25 09:13:43;;;;;;;15.27;9.53;;;;;;;0.21;87.90;100770.06;5028121;28;20112;-59
2021/12/25 09:16:08;;;;;;;14.97;10.17;;;;;;;0.16;87.80;100766.91;5028985;28;20117;-59
2021/12/25 09:18:33;;;;;;;15.67;10.20;;;;;;;0.15;87.94;100774.81;5026586;28;20108;-59
2021/12/25 09:20:59;;;;;;;15.43;10.00;;;;;;;0.10;88.35;100773.31;5030746;28;20030;-59
2021/12/25 09:23:24;;;;;;;14.63;9.67;;;;;;;0.08;88.65;100775.19;5027884;28;20029;-59
2021/12/25 09:25:49;;;;;;;14.63;10.20;;;;;;;0.10;88.56;100772.50;5030482;28;20057;-59
2021/12/25 09:28:15;;;;;;;15.60;10.27;;;;;;;0.09;89.56;100787.28;5027539;28;20069;-59
2021/12/25 09:30:42;;;;;;;15.13;10.30;;;;;;;0.13;89.34;100778.34;5029095;28;20399;-59
2021/12/25 09:33:07;;;;;;;17.60;10.07;;;;;;;0.09;87.22;100776.84;5020135;28;20037;-59
2021/12/25 09:35:33;;;;;;;14.77;10.17;;;;;;;-0.03;87.73;100775.00;5026597;28;20029;-59
2021/12/25 09:37:58;;;;;;;15.30;10.13;;;;;;;0.01;88.72;100779.13;5030949;28;20036;-58
2021/12/25 09:40:23;;;;;;;14.17;9.20;;;;;;;0.05;87.55;100780.59;5023317;28;20030;-57
2021/12/25 09:42:49;;;;;;;15.27;9.50;;;;;;;0.16;87.01;100779.09;5028402;28;20052;-58
2021/12/25 09:45:14;;;;;;;14.37;9.47;;;;;;;0.04;87.96;100778.09;5027956;28;20155;-59
2021/12/25 09:47:41;;;;;;;14.63;10.10;;;;;;;-0.07;88.54;100783.94;5027945;28;20026;-58
2021/12/25 09:50:08;;;;;;;14.63;9.87;;;;;;;-0.04;88.98;100791.59;5028590;28;20026;-59
2021/12/25 09:52:34;;;;;;;15.90;10.37;;;;;;;-0.04;89.25;100795.03;5027365;28;20483;-58
2021/12/25 09:54:59;;;;;;;17.07;10.17;;;;;;;-0.04;88.96;100796.81;5026022;28;20048;-58
2021/12/25 09:57:25;;;;;;;14.77;10.27;;;;;;;-0.04;88.65;100802.03;5026199;28;20030;-59
2021/12/25 09:59:52;;;;;;;16.27;9.50;;;;;;;0.06;87.91;100805.75;5030300;28;20474;-58
2021/12/25 10:02:17;;;;;;;15.87;9.87;;;;;;;0.03;88.36;100813.75;5030732;28;20120;-57
2021/12/25 10:04:49;;;;;;;15.40;9.50;;;;;;;0.08;87.33;100814.31;5029576;28;20113;-58
2021/12/25 10:07:24;;;;;;;14.47;9.47;;;;;;;-0.04;86.94;100826.31;5029840;28;21455;-59
2021/12/25 10:09:59;;;;;;;16.57;10.17;;;;;;;-0.06;87.61;100827.31;5018645;28;20091;-62
2021/12/25 10:12:32;;;;;;;14.57;9.77;;;;;;;-0.14;87.52;100828.63;5015694;28;20047;-63
2021/12/25 10:14:58;;;;;;;13.40;9.35;;;;;;;-0.18;88.36;100827.16;5027773;28;20425;-63
2021/12/25 10:17:27;;;;;;;15.23;10.40;;;;;;;-0.15;89.61;100821.75;5027566;28;20072;-63
2021/12/25 10:20:14;;;;;;;14.73;9.50;;;;;;;-0.15;87.55;100820.94;5028782;28;20033;-63
2021/12/25 10:23:14;;;;;;;14.87;10.17;;;;;;;-0.13;87.54;100826.88;5022880;28;20556;-63
2021/12/25 10:25:57;;;;;;;15.50;10.13;;;;;;;-0.22;88.42;100817.84;5028347;28;20100;-63
2021/12/25 10:28:37;;;;;;;13.65;9.43;;;;;;;-0.26;87.78;100829.38;5029291;28;20087;-63
2021/12/25 10:31:16;;;;;;;15.03;10.00;;;;;;;-0.33;88.60;100830.66;5025704;28;20034;-63
2021/12/25 10:33:50;;;;;;;16.63;9.60;;;;;;;-0.32;88.28;100832.34;5034200;28;20041;-64
2021/12/25 10:36:33;;;;;;;14.73;9.77;;;;;;;-0.25;88.14;100825.81;5027984;28;20040;-63
2021/12/25 10:39:05;;;;;;;13.90;9.33;;;;;;;-0.24;88.25;100822.31;5028675;28;20029;-63
2021/12/25 10:41:35;;;;;;;13.88;9.35;;;;;;;-0.25;88.61;100825.00;5030822;28;20029;-63
2021/12/25 10:44:14;;;;;;;15.70;10.00;;;;;;;-0.19;88.27;100825.47;5033121;28;20041;-63
2021/12/25 10:47:10;;;;;;;13.70;9.10;;;;;;;-0.14;87.24;100828.63;5032724;28;20032;-63
2021/12/25 10:49:41;;;;;;;13.07;8.83;;;;;;;-0.25;86.13;100831.03;5030627;28;20143;-64
2021/12/25 10:52:15;;;;;;;13.50;8.70;;;;;;;-0.37;86.78;100832.63;5032215;28;20112;-63
2021/12/25 10:54:46;;;;;;;13.00;8.60;;;;;;;-0.51;86.99;100823.00;5032434;28;20022;-63
2021/12/25 10:57:11;;;;;;;13.20;8.30;;;;;;;-0.47;87.46;100816.69;5032511;28;20029;-63
2021/12/25 10:59:48;;;;;;;10.43;7.90;;;;;;;-0.38;87.30;100814.47;5027499;28;20033;-64
2021/12/25 11:02:47;;;;;;;11.30;7.80;;;;;;;-0.30;87.07;100817.47;5029493;28;20041;-63
2021/12/25 11:05:32;;;;;;;12.13;8.00;;;;;;;-0.49;86.79;100818.53;5031531;28;20108;-63
2021/12/25 11:08:08;;;;;;;10.13;7.33;;;;;;;-0.51;86.06;100809.97;5033022;28;20085;-64
2021/12/25 11:10:47;;;;;;;9.03;7.13;;;;;;;-0.38;86.15;100820.53;5033709;28;20033;-65
2021/12/25 11:13:44;;;;;;;10.80;7.80;;;;;;;-0.42;85.42;100821.63;5040442;28;20037;-63
2021/12/25 11:16:14;;;;;;;12.07;7.43;;;;;;;-0.58;85.81;100819.06;5026788;28;20044;-64
2021/12/25 11:18:53;;;;;;;11.20;7.07;;;;;;;-0.61;86.56;100825.31;5030855;28;20076;-64
2021/12/25 11:21:18;;;;;;;10.73;6.87;;;;;;;-0.65;86.23;100833.41;5033269;28;20032;-64
2021/12/25 11:23:45;;;;;;;9.73;7.07;;;;;;;-0.68;86.43;100830.00;5032905;28;20025;-64
2021/12/25 11:26:11;;;;;;;10.00;7.47;;;;;;;-0.72;86.73;100833.75;5032284;28;20025;-63
2021/12/25 11:28:37;;;;;;;11.83;6.87;;;;;;;-0.67;86.26;100833.47;5031334;28;20048;-64
2021/12/25 11:31:02;;;;;;;9.23;6.43;;;;;;;-0.66;87.30;100824.72;5031492;28;20025;-64
2021/12/25 11:33:27;;;;;;;10.57;6.83;;;;;;;-0.66;86.68;100816.91;5031864;28;20040;-64
2021/12/25 11:35:53;;;;;;;9.40;6.10;;;;;;;-0.63;86.94;100808.09;5030581;28;20060;-64
2021/12/25 11:38:18;;;;;;;9.97;5.97;;;;;;;-0.59;86.80;100797.38;5031062;28;20562;-64
2021/12/25 11:40:50;;;;;;;8.57;5.83;;;;;;;-0.58;86.10;100803.44;5032398;28;20029;-64
2021/12/25 11:43:32;;;;;;;8.23;5.90;;;;;;;-0.65;86.40;100794.31;5030324;28;20398;-64
2021/12/25 11:45:58;;;;;;;8.37;5.43;;;;;;;-0.53;85.58;100803.16;5033128;28;20031;-64
2021/12/25 11:48:23;;;;;;;9.37;5.70;;;;;;;-0.52;87.01;100799.63;5032234;28;20397;-63
2021/12/25 11:50:51;;;;;;;8.30;5.60;;;;;;;-0.48;86.05;100796.78;5032204;28;20101;-64
2021/12/25 11:53:31;;;;;;;9.53;5.33;;;;;;;-0.42;86.68;100809.44;5028686;28;20048;-64
2021/12/25 11:58:45;;;;;;;7.97;5.23;;;;;;;-0.39;86.34;100807.56;5028505;28;20494;-64
2021/12/25 12:01:16;;;;;;;7.37;5.07;;;;;;;-0.29;86.61;100806.09;5024285;28;20029;-63
2021/12/25 12:03:46;;;;;;;6.93;4.90;;;;;;;-0.31;85.96;100805.34;5030366;28;20029;-64
2021/12/25 12:06:13;;;;;;;7.97;4.90;;;;;;;-0.34;85.57;100803.75;5030759;28;20568;-64
2021/12/25 12:08:53;;;;;;;10.80;4.93;;;;;;;-0.30;85.19;100804.44;5030909;28;20045;-64
2021/12/25 12:11:22;;;;;;;7.27;5.00;;;;;;;-0.34;85.71;100806.34;5030811;28;20034;-64
2021/12/25 12:13:47;;;;;;;7.07;4.40;;;;;;;-0.36;84.96;100802.16;5029151;28;20057;-64
2021/12/25 12:16:12;;;;;;;7.43;4.43;;;;;;;-0.36;84.06;100807.38;5029829;28;20071;-64
2021/12/25 12:18:40;;;;;;;6.93;4.80;;;;;;;-0.34;85.84;100805.53;5030574;28;20033;-64
2021/12/25 12:21:33;;;;;;;8.17;4.60;;;;;;;-0.35;85.18;100809.09;5032363;28;20148;-64
2021/12/25 12:24:39;;;;;;;5.30;4.00;;;;;;;-0.24;85.21;100801.47;5030826;28;20034;-64
2021/12/25 12:27:05;;;;;;;5.87;3.80;;;;;;;-0.34;84.68;100795.13;5031774;28;20033;-64
2021/12/25 12:29:39;;;;;;;5.33;4.10;;;;;;;-0.36;84.72;100787.38;5032254;28;20026;-64
2021/12/25 12:32:46;;;;;;;6.10;4.00;;;;;;;-0.30;84.54;100783.59;5029008;28;20037;-64
2021/12/25 12:35:34;;;;;;;4.80;3.60;;;;;;;-0.33;82.85;100786.38;5022153;28;20112;-63
2021/12/25 12:38:39;;;;;;;5.53;3.87;;;;;;;-0.36;84.11;100776.97;5031466;28;20030;-64
2021/12/25 12:41:27;;;;;;;5.17;3.53;;;;;;;-0.38;84.33;100767.56;5031164;28;20474;-64